Tiempo atmosférico en la estación meteorológica de Albacete, Albacete (674 m.)



Fecha
DESCASC
Temp. máxima en grados centígrados (hora)
DESCASC
Temp. mínima en grados centígrados (hora)
DESCASC
Temp. media en grados centígrados
DESCASC
Racha de viento máxima en m/sg (hora)
DESCASC
Velocidad máxima media en intervalos de 10 minutos(hora)
DESCASC
Precipitaciones diarias en mm
DESCASC
Precipitaciones de 00:00 a 06:00 en mm
DESCASC
Precipitaciones de 06:00 a 12:00 en mm
DESCASC
Precipitaciones de 12:00 a 18:00 en mm
DESCASC
Precipitaciones de 18:00 a 24:00 en mm
DESCASC
22-01-2020 10.2 (14:30) 2.3 (23:59) 6.2 6.39 (14:00) 2.78 (14:00) 1.1 1.1 0 0 0
21-01-2020 3.8 (00:10) 1.7 (07:40) 2.8 9.44 (00:40) 3.89 (00:50) 28 5.1 18.4 3.6 0.9
20-01-2020 4.1 (16:40) -0.6 (06:10) 1.7 13.33 (17:00) 6.67 (17:20) 3.3 0.6 2 0.2 0.5
19-01-2020 9.7 (00:00) 1 (00:00) 5.3 11.39 (01:30) 2.78 (01:30) 7.8 2.1 0 5.7 0
18-01-2020 12.3 (14:50) 4.3 (00:00) 8.3 8.89 (13:40) 3.61 (15:20) 0 0 0 0 0
17-01-2020 14.3 (14:40) 5.7 (00:00) 10 11.39 (14:40) 4.44 (12:50) 0 0 0 0 0
16-01-2020 17.1 (16:10) 0 (00:00) 8.6 3.61 (21:30) 1.39 (21:30) 0 0 0 0 0
15-01-2020 15.6 (15:50) -0.8 (-00:0) 7.4 7.22 (16:20) 2.22 (15:00) 0 0 0 0 0
14-01-2020 12.8 (15:30) -1.7 (-00:0) 5.6 5.83 (15:10) 1.94 (15:10) 0 0 0 0 0
13-01-2020 12.6 (15:50) -2.5 (-00:0) 5.1 5 (17:10) 1.39 (15:40) 0 0 0 0 0
12-01-2020 12.9 (15:40) -2.3 (-00:0) 5.3 6.67 (14:00) 2.22 (14:00) 0 0 0 0 0
11-01-2020 13.1 (16:30) -1.6 (-00:0) 5.8 3.89 (15:20) 1.67 (22:10) 0 0 0 0 0
10-01-2020 12.9 (14:50) 0.7 (00:00) 6.8 6.67 (16:00) 2.78 (16:10) 0 0 0 0 0
09-01-2020 13.3 (16:20) 0.9 (00:00) 7.1 5 (07:40) 1.94 (10:40) 0 0 0 0 0
08-01-2020 14.7 (16:30) -0.8 (-00:0) 6.9 5 (17:00) 1.94 (17:30) 0 0 0 0 0
07-01-2020 15.3 (15:30) -1.3 (-00:0) 7 5 (15:40) 2.22 (16:10) 0 0 0 0 0
06-01-2020 16.1 (16:10) -2.3 (-00:0) 6.9 2.5 (16:40) 1.39 (16:40) 0 0 0 0 0
05-01-2020 14.2 (16:30) -0.9 (-00:0) 6.6 2.5 (01:40) 0.83 (14:00) 0 0 0 0 0
04-01-2020 12.1 (16:10) 2.1 (00:00) 7.1 3.89 (16:00) 1.67 (16:00) 0 0 0 0 0
03-01-2020 11.5 (14:20) -0.3 (00:00) 5.6 6.67 (15:40) 2.5 (15:50) 0 0 0 0 0
02-01-2020 14.7 (16:30) -3.3 (-00:0) 5.7 2.22 (15:00) 0.83 (17:30) 0 0 0 0 0
01-01-2020 12.4 (16:40) 0.2 (00:00) 6.3 2.78 (04:30) 1.11 (04:30) 0 0 0 0 0
31-12-2019 6.7 (16:00) -1 (-00:0) 2.8 4.17 (13:50) 1.94 (13:40) 0 0 0 0 0
30-12-2019 11.9 (15:30) 1.5 (00:00) 6.7 5 (13:00) 2.5 (13:00) 0 0 0 0 0
29-12-2019 13 (16:10) 0 (00:00) 6.5 5.83 (12:00) 2.22 (11:00) 0 0 0 0 0
28-12-2019 14.1 (16:20) -0.6 (-00:0) 6.8 4.72 (14:00) 2.5 (13:50) 0 0 0 0 0
27-12-2019 18.3 (15:30) 1.7 (00:00) 10 6.11 (13:00) 2.5 (12:10) 0 0 0 0 0
26-12-2019 16.8 (14:40) 5 (00:00) 10.9 5 (15:40) 2.5 (15:40) 0 0 0 0 0
25-12-2019 18 (16:10) 0.4 (00:00) 9.2 2.78 (15:50) 1.39 (16:10) 0 0 0 0 0

Gráficas

Temp. máximas Temp. mínimas Temp. medias Precipitaciones Rachas de viento máximas Velocidades máximas media en intervalos de 10 minutos

Datos horarios

Fecha y hora oficial Temperatura (ºC) Velocidad del viento (km/h) Dirección del viento Racha (km/h) Dirección de racha Precipitación (mm) Presión (hPa) Tendencia (hPa) Humedad (%)
2020-01-23 23:00:00 5.8 4 Este 14 Este 0 942.1 1.1 93
2020-01-23 22:00:00 6.1 3 Este 14 Sudeste 0 941.9 1.4 93
2020-01-23 21:00:00 6 3 Este 7 Este 0 941.3 1 90
2020-01-23 20:00:00 6.9 3 Nordeste 11 Sudeste 0 941 1 85
2020-01-23 19:00:00 8.3 3 Sudeste 18 Sur 0 940.5 0.9 76
2020-01-23 18:00:00 9.3 5 Sudeste 19 Sudeste 0 940.3 0.3 70
2020-01-23 17:00:00 10 5 Sudeste 19 Sur 0 940 -0.3 65
2020-01-23 16:00:00 10.9 6 Sur 22 Sudoeste 0 939.6 -1.3 60
2020-01-23 15:00:00 10.5 8 Sur 29 Sudoeste 0 940 -1.5 58
2020-01-23 14:00:00 10.6 6 Sur 27 Este 0 940.3 -1.2 65
2020-01-23 13:00:00 9.3 5 Sur 21 Sudoeste 0 940.9 0.1 74
2020-01-23 12:00:00 5.2 0 Calma 8 Este 0 941.5 1.3 97
2020-01-23 11:00:00 3.8 4 Este 9 Este 0 941.5 1.7 97
2020-01-23 10:00:00 2.5 0 Calma 9 Este 0 940.8 1.7 97
2020-01-23 09:00:00 2.3 0 Calma 3 Oeste 0 940.2 1.2 97
2020-01-23 08:00:00 2.2 0 Calma 13 Sudeste 0 939.8 0.4 97
2020-01-23 07:00:00 4.4 2 Sudeste 12 Sudeste 0 939.1 -0.4 97
2020-01-23 06:00:00 3.6 4 Sudeste 12 Sudeste 0 939 -0.7 97
2020-01-23 05:00:00 0.6 0 Calma 6 Este 0 939.4 -0.4 97
2020-01-23 04:00:00 1.1 3 Nordeste 11 Este 0 939.5 -0.5 97
2020-01-23 03:00:00 1.2 0 Calma 6 Este 0 939.7 0 97
2020-01-23 02:00:00 1.8 0 Calma 5 Este 0 939.8 0.2 96
2020-01-23 01:00:00 2.1 0 Calma 6 Este 0 940 1 96
2020-01-23 00:00:00 2.3 3 Este 5 Este 0 939.7 1 95
2020-01-22 23:00:00 3.1 0 Calma 4 Nordeste 0 939.6 1.1 94
2020-01-22 22:00:00 4 0 Calma 6 Este 0 939 0.6 92
2020-01-22 21:00:00 4.7 0 Calma 6 Este 0 938.7 0.9 90
2020-01-22 20:00:00 5.7 2 Este 8 Este 0 938.5 0.8 88
2020-01-22 19:00:00 6.9 3 Este 8 Nordeste 0 938.4 0.6 83
2020-01-22 18:00:00 8.2 4 Este 16 Este 0 937.8 -0.3 77
2020-01-22 17:00:00 9.3 6 Nordeste 23 Este 0 937.7 -1 71
2020-01-22 16:00:00 10 8 Nordeste 20 Nordeste 0 937.8 -1.6 67
2020-01-22 15:00:00 9.9 8 Nordeste 19 Nordeste 0 938.1 -1.9 71
2020-01-22 14:00:00 9.9 10 Este 23 Este 0 938.7 -1.6 74
2020-01-22 13:00:00 9.4 8 Este 18 Este 0 939.4 -0.4 74
2020-01-22 12:00:00 7.7 6 Nordeste 15 Nordeste 0 940 0.6 86
2020-01-22 11:00:00 7 4 Nordeste 15 Nordeste 0 940.3 1 88
2020-01-22 10:00:00 6.4 7 Este 21 Este 0 939.8 1.1 98
2020-01-22 09:00:00 4.9 4 Este 14 Este 0 939.4 0.7 98
2020-01-22 08:00:00 4.8 3 Sudeste 12 Norte 0 939.3 0.8 99
2020-01-22 07:00:00 4.6 3 Este 8 Sudeste 0 938.7 0 98
2020-01-22 06:00:00 4.7 2 Este 12 Nordeste 0 938.7 0.1 98
2020-01-22 05:00:00 4.6 5 Nordeste 15 Nordeste 0 938.5 0.1 98
2020-01-22 04:00:00 4.6 2 Este 11 Este 0 938.7 0.3 98
2020-01-22 03:00:00 4.9 2 Este 15 Sudeste 1 938.6 0.2 98
2020-01-22 02:00:00 3.6 0 Calma 6 Este 0.1 938.4 0.3 98
2020-01-22 01:00:00 3.3 4 Este 11 Este 0 938.4 0.6 98
2020-01-22 00:00:00 3.2 3 Nordeste 14 Este 0 938.4 1 98
2020-01-21 23:00:00 3.6 6 Este 18 Este 0 938.1 1.3 98
2020-01-21 22:00:00 3.6 5 Este 19 Este 0 937.8 1.2 98
2020-01-21 21:00:00 3.6 6 Nordeste 19 Este 0 937.4 1.8 98
2020-01-21 20:00:00 3.4 6 Nordeste 18 Este 0.7 936.8 1.2 98
2020-01-21 19:00:00 3.4 6 Este 14 Nordeste 0.2 936.6 1.1 98
2020-01-21 18:00:00 3.3 2 Nordeste 17 Este 0 935.6 0.9 98
2020-01-21 17:00:00 3.1 7 Nordeste 17 Este 0.2 935.6 0.2 98
2020-01-21 16:00:00 3.4 5 Nordeste 19 Nordeste 0 935.5 0.5 98
2020-01-21 15:00:00 3.1 8 Nordeste 30 Nordeste 1.6 934.7 -1.7 98
2020-01-21 14:00:00 3.2 10 Nordeste 28 Nordeste 0.2 935.4 -1.4 98
2020-01-21 13:00:00 3.4 6 Nordeste 27 Nordeste 1.6 935 -1.2 98
2020-01-21 12:00:00 2.6 4 Nordeste 21 Nordeste 4.3 936.4 0.3 98
2020-01-21 11:00:00 3.2 6 Nordeste 20 Nordeste 2.7 936.8 0.5 98
2020-01-21 10:00:00 3.1 6 Nordeste 21 Nordeste 1.3 936.2 -0.2 98
2020-01-21 09:00:00 2.6 6 Nordeste 16 Norte 1.8 936.1 -0.3 98
2020-01-21 08:00:00 1.8 6 Nordeste 21 Nordeste 4.1 936.3 -0.8 98
2020-01-21 07:00:00 2.1 4 Nordeste 18 Nordeste 4.2 936.4 -1.4 97
2020-01-21 06:00:00 2 3 Norte 14 Nordeste 3.8 936.4 -1.7 97
2020-01-21 05:00:00 2.3 3 Norte 17 Este 0 937.1 -1.9 97
2020-01-21 04:00:00 3.1 6 Nordeste 30 Nordeste 0 937.8 -2.1 97
2020-01-21 03:00:00 3 9 Nordeste 27 Este 0 938.1 -1.6 97
2020-01-21 02:00:00 3.2 10 Nordeste 29 Este 0 939 -0.4 97
2020-01-21 01:00:00 2.9 12 Nordeste 34 Este 1.3 939.9 0.4 97
2020-01-21 00:00:00 3.7 12 Nordeste 29 Nordeste 0.3 939.7 -0.2 96
2020-01-20 23:00:00 3.5 11 Nordeste 37 Nordeste 0.1 939.4 -0.5 94
2020-01-20 22:00:00 3.5 11 Nordeste 44 Nordeste 0 939.5 0.3 93
2020-01-20 21:00:00 3.7 11 Nordeste 37 Nordeste 0 939.9 1.5 96
2020-01-20 20:00:00 3.4 13 Nordeste 40 Este 0.1 939.9 2.1 96
2020-01-20 19:00:00 3.4 10 Nordeste 47 Este 0 939.2 0.7 96
2020-01-20 18:00:00 3.1 19 Nordeste 48 Este 0 938.4 -0.5 93
2020-01-20 17:00:00 3.6 21 Nordeste 48 Nordeste 0 937.8 -1.8 93
2020-01-20 16:00:00 3.6 14 Nordeste 39 Nordeste 0 938.5 -1.7 97
2020-01-20 15:00:00 2.9 10 Nordeste 29 Nordeste 0 938.9 -1.5 98
2020-01-20 14:00:00 2.7 11 Nordeste 27 Este 0 939.6 -1 98
2020-01-20 13:00:00 2 7 Nordeste 22 Nordeste 0.2 940.2 0.1 98
2020-01-20 12:00:00 0.6 0 Calma 8 Nordeste 0.7 940.4 0.4 98
2020-01-20 11:00:00 0.2 0 Calma 6 Noroeste 0.9 940.6 0.9 98
2020-01-20 10:00:00 0 0 Calma 10 Norte 0.3 940.1 0.8 98
2020-01-20 09:00:00 -0.5 0 Calma 19 Norte 0.1 940 0.3 97
2020-01-20 08:00:00 -0.6 3 Norte 28 Noroeste 0 939.7 -0.1 97
2020-01-20 07:00:00 -0.6 4 Norte 23 Norte 0 939.3 -0.8 97
2020-01-20 06:00:00 -0.5 4 Norte 23 Nordeste 0.4 939.7 -0.7 96
2020-01-20 05:00:00 -0.3 5 Nordeste 30 Nordeste 0.1 939.8 -1 95
2020-01-20 04:00:00 0 5 Nordeste 26 Norte 0.1 940.1 -0.6 92
2020-01-20 03:00:00 0.5 9 Nordeste 27 Nordeste 0 940.4 -0.6 86
2020-01-20 02:00:00 1.6 5 Nordeste 22 Norte 0 940.8 0.4 73
2020-01-20 01:00:00 1.7 4 Norte 19 Norte 0 940.7 -0.2 76
2020-01-20 00:00:00 1.8 4 Norte 19 Norte 0 941 0.2 80
2020-01-19 23:00:00 1.6 4 Norte 26 Norte 0 940.4 -0.7 94
2020-01-19 22:00:00 1.9 5 Norte 21 Norte 0 940.9 0.5 98
2020-01-19 21:00:00 1.4 0 Calma 12 Norte 0 940.8 0.8 98
2020-01-19 20:00:00 1.5 3 Nordeste 15 Norte 0 941.1 1.6 98
2020-01-19 19:00:00 1.2 0 Calma 7 Nordeste 0 940.4 1.6 98
2020-01-19 18:00:00 1.2 0 Calma 10 Norte 0.4 940 1.4 97
2020-01-19 17:00:00 1.9 3 Nordeste 21 Nordeste 1.4 939.5 0.7 97
2020-01-19 16:00:00 3.3 5 Nordeste 28 Nordeste 0.7 938.8 0.3 97
2020-01-19 15:00:00 3.6 2 Nordeste 15 Este 1.5 938.6 -0.3 96
2020-01-19 14:00:00 3.4 5 Nordeste 25 Este 1.6 938.8 0 91
2020-01-19 13:00:00 5.8 4 Nordeste 16 Nordeste 0.1 938.5 0.3 83
2020-01-19 12:00:00 5.7 0 Calma 20 Noroeste 0 938.9 1 87
2020-01-19 11:00:00 4.6 4 Noroeste 21 Noroeste 0 938.8 1.3 91
2020-01-19 10:00:00 4.1 4 Noroeste 20 Oeste 0 938.2 0.2 94
2020-01-19 09:00:00 4 6 Oeste 27 Oeste 0 937.9 -0.6 96
2020-01-19 08:00:00 4.3 8 Oeste 22 Oeste 0 937.5 -1.8 97
2020-01-19 07:00:00 5 4 Oeste 17 Oeste 0 938 -1.8 97
2020-01-19 06:00:00 5.2 6 Oeste 19 Oeste 0.6 938.5 -1.6 97
2020-01-19 05:00:00 5.6 3 Noroeste 28 Oeste 1.5 939.3 -1.3 95
2020-01-19 04:00:00 6.1 4 Noroeste 22 Noroeste 0 939.8 -1 89
2020-01-19 03:00:00 7.2 3 Sudoeste 13 Sudoeste 0 940.1 -1.4 87
2020-01-19 02:00:00 6.9 5 Oeste 41 Oeste 0 940.6 -1.7 86
2020-01-19 01:00:00 9.2 5 Oeste 14 Sudoeste 0 940.8 -1.8 90
2020-01-19 00:00:00 9.7 7 Oeste 22 Sudoeste 0 941.5 -1.6 89
2020-01-18 23:00:00 10.3 9 Oeste 26 Noroeste 0 942.3 -1.9 88
2020-01-18 22:00:00 9.6 8 Oeste 21 Oeste 0 942.6 -1.9 88
2020-01-18 21:00:00 9.4 9 Oeste 26 Sudoeste 0 943.1 -1.8 88
2020-01-18 20:00:00 9.2 4 Oeste 21 Sudoeste 0 944.2 -1.5 85
2020-01-18 19:00:00 9.7 5 Sudoeste 28 Oeste 0 944.5 -1.7 77
2020-01-18 18:00:00 10.5 10 Oeste 27 Oeste 0 944.9 -2.3 71
2020-01-18 17:00:00 11.1 11 Oeste 26 Sudoeste 0 945.7 -2.7 65
2020-01-18 16:00:00 11.6 12 Oeste 28 Sudoeste 0 946.2 -3.7 63
2020-01-18 15:00:00 11.9 12 Oeste 30 Oeste 0 947.2 -4.1 59
2020-01-18 14:00:00 11.9 10 Oeste 32 Oeste 0 948.4 -3.6 60
2020-01-18 13:00:00 10.6 7 Sudoeste 15 Sudoeste 0 949.9 -1.2 74
2020-01-18 12:00:00 8.3 0 Calma 9 Sudoeste 0 951.3 -1.1 89
2020-01-18 11:00:00 6.7 0 Calma 9 Sudoeste 0 952 -0.2 94
2020-01-18 10:00:00 5.6 0 Calma 8 Sur 0 951.1 0 94
2020-01-18 09:00:00 4.9 0 Calma 0 Calma 0 952.4 1.8 92
2020-01-18 08:00:00 4.7 0 Calma 4 Nordeste 0 952.2 1.4 92
2020-01-18 07:00:00 4.5 0 Calma 3 Nordeste 0 951.1 0.2 90
2020-01-18 06:00:00 4.7 0 Calma 10 Oeste 0 950.6 -1.3 90
2020-01-18 05:00:00 5.3 0 Calma 5 Sudeste 0 950.8 -1.9 85
2020-01-18 04:00:00 6.3 0 Calma 5 Norte 0 950.9 -2.3 84
2020-01-18 03:00:00 7 0 Calma 5 Oeste 0 951.9 -1.3 82
2020-01-18 02:00:00 6.6 0 Calma 9 Sudoeste 0 952.7 -0.4 82
2020-01-18 01:00:00 6.5 0 Calma 11 Sudoeste 0 953.2 0.3 80
2020-01-18 00:00:00 6.7 2 Sudoeste 13 Sur 0 953.2 0.3 79
2020-01-17 23:00:00 6.8 3 Oeste 13 Oeste 0 953.1 0.8 76
2020-01-17 22:00:00 7.5 0 Calma 14 Oeste 0 952.9 0.7 72
2020-01-17 21:00:00 8.1 4 Oeste 15 Oeste 0 952.9 1.2 67
2020-01-17 20:00:00 9.1 6 Oeste 17 Oeste 0 952.3 1.4 63
2020-01-17 19:00:00 10 5 Oeste 17 Oeste 0 952.2 1.3 60
2020-01-17 18:00:00 11.6 4 Oeste 26 Oeste 0 951.7 0.8 53
2020-01-17 17:00:00 13.1 8 Oeste 33 Oeste 0 950.9 -0.5 48
2020-01-17 16:00:00 13.7 14 Oeste 37 Oeste 0 950.9 -1.1 48
2020-01-17 15:00:00 13.9 12 Oeste 41 Sudoeste 0 950.9 -1.5 49
2020-01-17 14:00:00 12.7 13 Oeste 33 Oeste 0 951.4 -0.6 56
2020-01-17 13:00:00 12.3 13 Oeste 38 Oeste 0 952 0.3 58
2020-01-17 12:00:00 11.8 13 Oeste 32 Oeste 0 952.4 1.2 61
2020-01-17 11:00:00 10.3 9 Oeste 23 Sudoeste 0 952 1.8 65
2020-01-17 10:00:00 7.5 5 Oeste 12 Oeste 0 951.7 1.8 69
2020-01-17 09:00:00 7.2 3 Oeste 17 Oeste 0 951.2 2.3 66
2020-01-17 08:00:00 7.8 6 Sudoeste 17 Sudoeste 0 950.2 1.3 65
2020-01-17 07:00:00 7.2 8 Sudoeste 26 Oeste 0 949.9 0.2 63
2020-01-17 06:00:00 6.9 6 Sudoeste 19 Sudoeste 0 948.9 -1 63
2020-01-17 05:00:00 6.2 3 Oeste 16 Oeste 0 948.9 -0.6 63
2020-01-17 04:00:00 6.7 0 Calma 17 Sur 0 949.7 0.4 59
2020-01-17 03:00:00 6 0 Calma 13 Sudoeste 0 949.9 0.3 61
2020-01-17 02:00:00 5.9 0 Calma 12 Oeste 0 949.5 0.1 61
2020-01-17 01:00:00 6 2 Sudoeste 12 Sudoeste 0 949.3 0 60
2020-01-17 00:00:00 6.8 3 Sudoeste 11 Sudoeste 0 949.6 0.8 59
2020-01-16 23:00:00 7.1 2 Sudoeste 11 Sudoeste 0 949.4 0.8 59
2020-01-16 22:00:00 8.3 3 Sudoeste 13 Sudoeste 0 949.3 1.3 60
2020-01-16 21:00:00 9.2 0 Calma 10 Sudoeste 0 948.8 1.1 63
2020-01-16 20:00:00 9 2 Sudoeste 6 Sudoeste 0 948.6 1.3 68
2020-01-16 19:00:00 10.4 0 Calma -- -- 0 948 0.7 58
2020-01-16 18:00:00 13.4 0 Calma 7 Oeste 0 947.7 0 47
2020-01-16 17:00:00 16 0 Calma 9 Norte 0 947.3 -0.8 41
2020-01-16 16:00:00 16.7 2 Norte 11 Noroeste 0 947.3 -1.7 41
2020-01-16 15:00:00 16.4 3 Norte 10 Oeste 0 947.7 -2.2 42
2020-01-16 14:00:00 15.3 0 Calma 7 Nordeste 0 948.1 -2.1 45
2020-01-16 13:00:00 13.1 0 Calma 5 Nordeste 0 949 -1 47
2020-01-16 12:00:00 10 2 Este 7 Este 0 949.9 0.1 59
2020-01-16 11:00:00 5.6 4 Este 7 Nordeste 0 950.2 0.8 79
2020-01-16 10:00:00 1.5 0 Calma -- -- 0 950 0.9 89
2020-01-16 09:00:00 0 0 Calma 2 Este 0 949.8 0.6 90
2020-01-16 08:00:00 0.1 0 Calma -- -- 0 949.4 -0.1 89
2020-01-16 07:00:00 0.6 0 Calma -- -- 0 949.1 -0.4 87
2020-01-16 06:00:00 0.9 0 Calma 3 Este 0 949.2 -0.2 86
2020-01-16 05:00:00 1.5 0 Calma 3 Sudoeste 0 949.5 0.3 86
2020-01-16 04:00:00 1.7 0 Calma 6 Sudoeste 0 949.5 0 86
2020-01-16 03:00:00 2.1 0 Calma 3 Sudoeste 0 949.4 -0.1 86
2020-01-16 02:00:00 3.2 0 Calma 7 Sudoeste 0 949.2 -0.4 86
2020-01-16 01:00:00 3.1 0 Calma 0 Calma 0 949.5 0.3 85
2020-01-16 00:00:00 3.6 0 Calma 0 Calma 0 949.5 0.6 80
2020-01-15 23:00:00 4.7 0 Calma 3 Nordeste 0 949.6 1 75
2020-01-15 22:00:00 7 0 Calma 8 Sudoeste 0 949.2 1 68
2020-01-15 21:00:00 7.7 0 Calma 7 Sudoeste 0 948.9 1.2 70
2020-01-15 20:00:00 8.8 2 Sudoeste 11 Oeste 0 948.6 1.4 64
2020-01-15 19:00:00 9.8 0 Calma 5 Noroeste 0 948.2 1.5 59
2020-01-15 18:00:00 12.2 0 Calma 13 Oeste 0 947.7 1.2 49
2020-01-15 17:00:00 14.2 5 Oeste 26 Oeste 0 947.2 0.3 41
2020-01-15 16:00:00 15.4 5 Oeste 19 Oeste 0 946.7 -0.8 37
2020-01-15 15:00:00 14.9 8 Oeste 17 Oeste 0 946.5 -1.3 40
2020-01-15 14:00:00 13.4 3 Noroeste 8 Oeste 0 946.9 -0.5 48
2020-01-15 13:00:00 10.6 0 Calma 6 Oeste 0 947.5 0.8 56
2020-01-15 12:00:00 7.9 0 Calma 6 Este 0 947.8 1.5 70
2020-01-15 11:00:00 4.9 0 Calma 6 Este 0 947.4 1.6 86
2020-01-15 10:00:00 1.6 0 Calma 0 Calma 0 946.7 1.5 96
2020-01-15 09:00:00 -0.4 0 Calma -- -- 0 946.3 1.1 96
2020-01-15 08:00:00 -0.6 0 Calma -- -- 0 945.8 0.7 95
2020-01-15 07:00:00 -0.7 0 Calma -- -- 0 945.2 0.1 94
2020-01-15 06:00:00 -0.1 0 Calma -- -- 0 945.2 0.2 93
2020-01-15 05:00:00 0.2 0 Calma -- -- 0 945.1 0.1 91
2020-01-15 04:00:00 1.4 0 Calma 0 Calma 0 945.1 0.1 89
2020-01-15 03:00:00 2.6 0 Calma 8 Noroeste 0 945 0 86
2020-01-15 02:00:00 3.4 0 Calma 11 Oeste 0 945 0 83
2020-01-15 01:00:00 3.9 0 Calma 8 Oeste 0 945 0.1 81
2020-01-15 00:00:00 3.9 0 Calma 15 Sudoeste 0 945 0.4 79
2020-01-14 23:00:00 4.9 0 Calma 13 Oeste 0 945 0.5 72
2020-01-14 22:00:00 5 0 Calma 9 Oeste 0 944.9 1.1 70
2020-01-14 21:00:00 5.2 0 Calma 9 Oeste 0 944.6 1.5 69
2020-01-14 20:00:00 5.8 2 Oeste 12 Oeste 0 944.5 1.5 63
2020-01-14 19:00:00 7.1 0 Calma 9 Noroeste 0 943.8 0.9 57
2020-01-14 18:00:00 9.3 0 Calma 15 Oeste 0 943.1 0.2 50
2020-01-14 17:00:00 11.4 3 Noroeste 17 Oeste 0 943 -0.6 45
2020-01-14 16:00:00 12.7 4 Noroeste 21 Oeste 0 942.9 -1.5 44
2020-01-14 15:00:00 12.3 3 Noroeste 19 Oeste 0 942.9 -2.1 46
2020-01-14 14:00:00 11.4 3 Noroeste 15 Oeste 0 943.6 -1.7 48
2020-01-14 13:00:00 9.7 4 Oeste 11 Oeste 0 944.4 -0.8 53
2020-01-14 12:00:00 7.4 0 Calma 4 Oeste 0 945 0.1 61
2020-01-14 11:00:00 3.4 0 Calma 4 Noroeste 0 945.3 0.4 85
2020-01-14 10:00:00 0.1 0 Calma 6 Sudoeste 0 945.2 0.6 95
2020-01-14 09:00:00 -1 0 Calma 6 Sudoeste 0 944.9 0.6 96
2020-01-14 08:00:00 -1.5 0 Calma 0 Calma 0 944.9 0.6 96
2020-01-14 07:00:00 -1.2 0 Calma -- -- 0 944.6 0.3 95
2020-01-14 06:00:00 -1.1 0 Calma -- -- 0 944.3 -0.3 93
2020-01-14 05:00:00 -0.9 0 Calma 0 Calma 0 944.3 -0.3 92
2020-01-14 04:00:00 -0.5 0 Calma -- -- 0 944.3 -0.8 87
2020-01-14 03:00:00 0.2 0 Calma -- -- 0 944.6 -0.9 79
2020-01-14 02:00:00 2.3 0 Calma 6 Sudoeste 0 944.6 -0.7 76
2020-01-14 01:00:00 2.7 0 Calma 7 Oeste 0 945.1 -0.4 76
2020-01-14 00:00:00 3.5 2 Sudoeste 7 Sudoeste 0 945.5 0.2 75
2020-01-13 23:00:00 3.6 2 Oeste 6 Oeste 0 945.3 0.1 72
2020-01-13 22:00:00 4.1 0 Calma 3 Oeste 0 945.5 0 68
2020-01-13 21:00:00 5 0 Calma 6 Oeste 0 945.3 0.2 63
2020-01-13 20:00:00 5.8 2 Oeste 5 Oeste 0 945.2 0.3 59
2020-01-13 19:00:00 7.2 0 Calma 16 Oeste 0 945.5 0.6 52
2020-01-13 18:00:00 9.1 3 Noroeste 18 Oeste 0 945.1 0 45
2020-01-13 17:00:00 11.1 3 Noroeste 15 Norte 0 944.9 -1.2 42
2020-01-13 16:00:00 12.4 5 Oeste 17 Oeste 0 944.9 -1.8 41
2020-01-13 15:00:00 11.7 0 Calma 9 Norte 0 945.1 -3 43
2020-01-13 14:00:00 10.5 3 Norte 12 Oeste 0 946.1 -2.3 44
2020-01-13 13:00:00 9.4 3 Oeste 8 Oeste 0 946.7 -1.5 46
2020-01-13 12:00:00 6.7 0 Calma 6 Sur 0 948.1 0 53
2020-01-13 11:00:00 3 0 Calma 6 Oeste 0 948.4 0.3 71
2020-01-13 10:00:00 -0.7 0 Calma 7 Oeste 0 948.2 0.5 84
2020-01-13 09:00:00 -2 0 Calma 4 Oeste 0 948.1 0.3 87
2020-01-13 08:00:00 -2.1 0 Calma 0 Calma 0 948.1 -0.1 86
2020-01-13 07:00:00 -1.7 0 Calma 5 Sudoeste 0 947.7 -1.1 86
2020-01-13 06:00:00 -1.8 0 Calma 2 Sudoeste 0 947.8 -1.2 87
2020-01-13 05:00:00 -1.8 0 Calma -- -- 0 948.2 -1 85
2020-01-13 04:00:00 -1 0 Calma -- -- 0 948.8 -1.2 81
2020-01-13 03:00:00 0.1 0 Calma 6 Sudoeste 0 949 -1.4 80
2020-01-13 02:00:00 0 0 Calma 4 Sudoeste 0 949.2 -1.2 79
2020-01-13 01:00:00 0.3 0 Calma 4 Oeste 0 950 -0.6 78
2020-01-13 00:00:00 0.8 0 Calma 2 Sudoeste 0 950.4 -0.3 75
2020-01-12 23:00:00 2.3 0 Calma 6 Sur 0 950.4 0 68
2020-01-12 22:00:00 3.8 2 Sudoeste 8 Sudoeste 0 950.6 0.7 63
2020-01-12 21:00:00 4.6 4 Sudoeste 10 Sudoeste 0 950.7 1.1 61
2020-01-12 20:00:00 5.2 0 Calma 4 Oeste 0 950.4 1 57
2020-01-12 19:00:00 6.8 0 Calma 4 Sudoeste 0 949.9 0.6 51
2020-01-12 18:00:00 9.4 0 Calma 12 Oeste 0 949.6 0.2 43
2020-01-12 17:00:00 11.9 4 Noroeste 14 Oeste 0 949.4 -0.4 35
2020-01-12 16:00:00 12.6 5 Oeste 20 Noroeste 0 949.3 -1.6 35
2020-01-12 15:00:00 12.5 6 Oeste 23 Oeste 0 949.4 -2.4 36
2020-01-12 14:00:00 11.3 8 Oeste 24 Oeste 0 949.8 -2.4 42
2020-01-12 13:00:00 10 5 Oeste 18 Oeste 0 950.9 -0.9 50
2020-01-12 12:00:00 7.6 5 Oeste 14 Oeste 0 951.8 0.4 63
2020-01-12 11:00:00 3.2 4 Oeste 8 Sudoeste 0 952.2 0.7 78
2020-01-12 10:00:00 -0.4 0 Calma 7 Oeste 0 951.8 0.7 90
2020-01-12 09:00:00 -2.1 0 Calma -- -- 0 951.4 0.6 90
2020-01-12 08:00:00 -1.9 0 Calma -- -- 0 951.5 0.7 88
2020-01-12 07:00:00 -1.1 0 Calma -- -- 0 951.1 0 85
2020-01-12 06:00:00 -0.4 0 Calma 5 Sudoeste 0 950.8 -0.5 83
2020-01-12 05:00:00 0 0 Calma -- -- 0 950.8 -0.3 83
2020-01-12 04:00:00 0.3 0 Calma 6 Sudoeste 0 951.1 -0.3 81
2020-01-12 03:00:00 0.7 0 Calma 5 Sudoeste 0 951.3 -0.2 80
2020-01-12 02:00:00 1.3 2 Sudoeste 6 Sudoeste 0 951.1 -0.4 77
2020-01-12 01:00:00 1.6 2 Sudoeste 8 Sudoeste 0 951.4 0 75
2020-01-12 00:00:00 1.9 0 Calma 9 Sudoeste 0 951.5 0.4 73
2020-01-11 23:00:00 2.7 3 Sudoeste 11 Sudoeste 0 951.5 0.5 71
2020-01-11 22:00:00 4 5 Sudoeste 11 Sudoeste 0 951.4 0.7 68
2020-01-11 21:00:00 4.7 4 Sudoeste 8 Sudoeste 0 951.1 0.9 70
2020-01-11 20:00:00 5.5 0 Calma 5 Sudoeste 0 951 0.9 63
2020-01-11 19:00:00 7.1 3 Oeste 6 Oeste 0 950.7 0.5 55
2020-01-11 18:00:00 9.4 0 Calma 7 Oeste 0 950.2 0 46
2020-01-11 17:00:00 11.7 0 Calma 10 Oeste 0 950.1 -0.8 38
2020-01-11 16:00:00 13 3 Oeste 14 Oeste 0 950.2 -1.6 38
2020-01-11 15:00:00 11.9 3 Noroeste 13 Oeste 0 950.2 -2.4 41
2020-01-11 14:00:00 10.7 5 Oeste 13 Oeste 0 950.9 -2 46
2020-01-11 13:00:00 8.7 0 Calma 10 Sudoeste 0 951.8 -0.5 55
2020-01-11 12:00:00 6.4 2 Oeste 8 Oeste 0 952.6 1.1 64
2020-01-11 11:00:00 3.4 3 Oeste 7 Oeste 0 952.9 1.8 76
2020-01-11 10:00:00 -0.1 0 Calma 0 Calma 0 952.3 1.5 90
2020-01-11 09:00:00 -1.4 0 Calma -- -- 0 951.5 0.9 90
2020-01-11 08:00:00 -1.2 0 Calma -- -- 0 951.1 0.8 89
2020-01-11 07:00:00 -0.6 0 Calma 5 Sudoeste 0 950.8 0.6 87
2020-01-11 06:00:00 -0.2 0 Calma 9 Oeste 0 950.6 0.4 85
2020-01-11 05:00:00 0.3 0 Calma 6 Sudeste 0 950.3 0.3 83
2020-01-11 04:00:00 0.4 3 Sudoeste 10 Sudoeste 0 950.2 0.6 83
2020-01-11 03:00:00 1.1 0 Calma 13 Oeste 0 950.2 0.5 80
2020-01-11 02:00:00 1.3 0 Calma 8 Oeste 0 950 0.2 81
2020-01-11 01:00:00 1.7 0 Calma 3 Oeste 0 949.6 0.3 80
2020-01-11 00:00:00 2.2 0 Calma -- -- 0 949.7 0.9 76
2020-01-10 23:00:00 3 0 Calma 5 Este 0 949.8 1.1 69
2020-01-10 22:00:00 4.2 3 Nordeste 11 Nordeste 0 949.3 1.4 63
2020-01-10 21:00:00 5.8 5 Nordeste 13 Nordeste 0 948.8 1.8 56
2020-01-10 20:00:00 6.8 4 Nordeste 14 Este 0 948.7 2.2 52
2020-01-10 19:00:00 7.3 3 Nordeste 17 Norte 0 947.9 2 48
2020-01-10 18:00:00 9.2 3 Nordeste 19 Nordeste 0 947 1.1 42
2020-01-10 17:00:00 11.3 6 Nordeste 24 Norte 0 946.5 0.1 36
2020-01-10 16:00:00 12.2 9 Nordeste 24 Este 0 945.9 -1.1 33
2020-01-10 15:00:00 12.9 3 Nordeste 18 Oeste 0 945.9 -1.7 40
2020-01-10 14:00:00 11.4 4 Noroeste 17 Oeste 0 946.4 -1.6 47
2020-01-10 13:00:00 10.1 3 Noroeste 14 Oeste 0 947 -0.8 56
2020-01-10 12:00:00 7.7 4 Oeste 12 Oeste 0 947.6 0.4 76
2020-01-10 11:00:00 4.7 3 Noroeste 11 Oeste 0 948 1.9 96
2020-01-10 10:00:00 3.1 0 Calma 6 Oeste 0 947.8 2.4 97
2020-01-10 09:00:00 1.7 0 Calma -- -- 0 947.2 1.8 97
2020-01-10 08:00:00 0.7 0 Calma -- -- 0 946.1 0.6 96
2020-01-10 07:00:00 1.2 0 Calma -- -- 0 945.4 -0.6 95
2020-01-10 06:00:00 1.7 0 Calma 3 Sudoeste 0 945.4 -0.6 94
2020-01-10 05:00:00 2.6 0 Calma 13 Oeste 0 945.5 -0.2 93
2020-01-10 04:00:00 2.9 2 Oeste 13 Oeste 0 946 0.3 92
2020-01-10 03:00:00 3.2 0 Calma 7 Oeste 0 946 -0.3 91
2020-01-10 02:00:00 3.3 0 Calma 3 Sur 0 945.7 -1.2 87
2020-01-10 01:00:00 4.5 0 Calma 5 Oeste 0 945.7 -0.8 83
2020-01-10 00:00:00 5.2 0 Calma 6 Oeste 0 946.3 0.4 83
2020-01-09 23:00:00 5.7 0 Calma 14 Oeste 0 946.9 0.2 84
2020-01-09 22:00:00 6.7 0 Calma 8 Sudoeste 0 946.5 -0.4 86
2020-01-09 21:00:00 6.8 0 Calma 5 Sur 0 945.9 -0.1 86
2020-01-09 20:00:00 7.3 0 Calma -- -- 0 946.7 1 80
2020-01-09 19:00:00 8.8 0 Calma 3 Norte 0 946.9 1 71
2020-01-09 18:00:00 10.8 0 Calma 5 Este 0 946 -0.6 63
2020-01-09 17:00:00 12.4 2 Nordeste 10 Nordeste 0 945.7 -1.4 56
2020-01-09 16:00:00 12.8 4 Nordeste 12 Este 0 945.9 -2 58
2020-01-09 15:00:00 11.8 5 Este 13 Nordeste 0 946.6 -2.1 60
2020-01-09 14:00:00 12.8 4 Este 11 Nordeste 0 947.1 -2.2 57
2020-01-09 13:00:00 11.6 3 Sudeste 13 Sudeste 0 947.9 -1.1 61
2020-01-09 12:00:00 9.3 7 Sudeste 14 Sudeste 0 948.7 0.1 73
2020-01-09 11:00:00 6.2 5 Sur 18 Sudeste 0 949.3 0.8 91
2020-01-09 10:00:00 5.5 4 Sudeste 17 Sudeste 0 949 0.4 96
2020-01-09 09:00:00 5.3 4 Sudeste 14 Sudeste 0 948.6 -0.4 98
2020-01-09 08:00:00 5.1 5 Sudeste 18 Este 0 948.5 -0.7 98
2020-01-09 07:00:00 4.9 4 Sudeste 15 Sudeste 0 948.6 -1.2 98
2020-01-09 06:00:00 4.9 5 Sudeste 15 Sudeste 0 949 -0.8 98
2020-01-09 05:00:00 4.4 0 Calma 10 Sudeste 0 949.2 -0.7 98
2020-01-09 04:00:00 3.9 4 Este 15 Sudeste 0 949.8 -0.3 98
2020-01-09 03:00:00 1 0 Calma 8 Sur 0 949.8 -0.8 97
2020-01-09 02:00:00 1.2 2 Este 7 Este 0 949.9 -0.7 96
2020-01-09 01:00:00 2.4 0 Calma 6 Este 0 950.1 -0.4 96
2020-01-09 00:00:00 3.6 0 Calma 4 Este 0 950.6 0.1 96
2020-01-08 23:00:00 4.2 0 Calma 4 Este 0 950.6 0.1 95
2020-01-08 22:00:00 5 2 Este 9 Este 0 950.5 0.2 95
2020-01-08 21:00:00 5.9 5 Este 12 Este 0 950.5 0.8 94
2020-01-08 20:00:00 6.7 3 Este 10 Este 0 950.5 1.3 90
2020-01-08 19:00:00 8.1 0 Calma 16 Este 0 950.3 1 83
2020-01-08 18:00:00 10.3 6 Nordeste 17 Nordeste 0 949.7 0.3 73
2020-01-08 17:00:00 13.7 6 Nordeste 18 Nordeste 0 949.2 -0.6 47
2020-01-08 16:00:00 13.8 5 Nordeste 10 Nordeste 0 949.3 -0.9 43
2020-01-08 15:00:00 13.5 3 Nordeste 9 Nordeste 0 949.4 -1.5 42
2020-01-08 14:00:00 12 2 Nordeste 10 Este 0 949.8 -1.4 46
2020-01-08 13:00:00 10.4 2 Norte 8 Norte 0 950.2 -0.6 51
2020-01-08 12:00:00 8.4 2 Sudoeste 6 Sudoeste 0 950.9 0.5 60
2020-01-08 11:00:00 5.7 3 Oeste 10 Oeste 0 951.2 1.4 74
2020-01-08 10:00:00 2.1 2 Oeste 6 Sur 0 950.8 1.1 91
2020-01-08 09:00:00 -0.3 0 Calma -- -- 0 950.4 0.7 90
2020-01-08 08:00:00 -0.7 0 Calma -- -- 0 949.8 -0.3 87
2020-01-08 07:00:00 -0.6 0 Calma -- -- 0 949.7 -0.3 88
2020-01-08 06:00:00 -0.5 0 Calma -- -- 0 949.7 -0.4 86
2020-01-08 05:00:00 -0.3 0 Calma -- -- 0 950.1 0.1 83
2020-01-08 04:00:00 0 0 Calma -- -- 0 950 -0.3 80
2020-01-08 03:00:00 1 0 Calma -- -- 0 950.1 -0.5 75
2020-01-08 02:00:00 1.8 0 Calma -- -- 0 950 -0.7 70
2020-01-08 01:00:00 3.5 0 Calma 6 Sudoeste 0 950.3 -0.4 61
2020-01-08 00:00:00 5 2 Sudoeste 8 Oeste 0 950.6 0 55
2020-01-07 23:00:00 6.2 2 Oeste 9 Sur 0 950.7 0.2 53
2020-01-07 22:00:00 6.8 4 Sudoeste 11 Sudoeste 0 950.7 0.4 55
2020-01-07 21:00:00 7.2 3 Sudoeste 9 Sudoeste 0 950.6 0.6 58
2020-01-07 20:00:00 6.5 0 Calma 5 Oeste 0 950.5 0.5 65
2020-01-07 19:00:00 8.2 0 Calma 7 Oeste 0 950.3 0.5 58
2020-01-07 18:00:00 11.2 0 Calma 9 Noroeste 0 950 0.1 46
2020-01-07 17:00:00 13.9 4 Oeste 17 Oeste 0 950 -1 36
2020-01-07 16:00:00 15.2 7 Oeste 18 Oeste 0 949.8 -2.1 36
2020-01-07 15:00:00 14 4 Oeste 16 Sudoeste 0 949.9 -2.7 42
2020-01-07 14:00:00 12.5 5 Oeste 13 Oeste 0 951 -1.6 46
2020-01-07 13:00:00 10.6 3 Noroeste 8 Noroeste 0 951.9 -0.7 52
2020-01-07 12:00:00 8.7 0 Calma 6 Nordeste 0 952.6 0.6 61
2020-01-07 11:00:00 5.2 0 Calma 4 Nordeste 0 952.6 0.8 81
2020-01-07 10:00:00 0.1 0 Calma 4 Nordeste 0 952.6 0.9 92
2020-01-07 09:00:00 -0.5 0 Calma 6 Sudoeste 0 952 0.5 93
2020-01-07 08:00:00 -0.6 0 Calma 5 Sur 0 951.8 0.5 94
2020-01-07 07:00:00 -1.2 0 Calma -- -- 0 951.7 0.1 92
2020-01-07 06:00:00 -0.4 0 Calma 0 Calma 0 951.5 0 91
2020-01-07 05:00:00 0.7 0 Calma 7 Sur 0 951.3 -0.2 92
2020-01-07 04:00:00 -0.1 0 Calma -- -- 0 951.6 0.6 92
2020-01-07 03:00:00 0 0 Calma -- -- 0 951.5 0.2 89
2020-01-07 02:00:00 1.3 0 Calma 0 Calma 0 951.5 0.5 88
2020-01-07 01:00:00 2.5 0 Calma 5 Sudoeste 0 951 0.5 88
2020-01-07 00:00:00 1.9 0 Calma -- -- 0 951.3 1.3 86
2020-01-06 23:00:00 2.7 0 Calma -- -- 0 951 1.3 82
2020-01-06 22:00:00 3.9 0 Calma 3 Oeste 0 950.5 1.1 74
2020-01-06 21:00:00 6.1 0 Calma 6 Sudoeste 0 950 1 69
2020-01-06 20:00:00 7.5 3 Oeste 6 Oeste 0 949.7 1 62
2020-01-06 19:00:00 7.8 0 Calma 3 Sudoeste 0 949.4 0.9 57
2020-01-06 18:00:00 11 0 Calma 8 Noroeste 0 949 0.6 43
2020-01-06 17:00:00 14.1 4 Oeste 9 Oeste 0 948.7 -0.1 32
2020-01-06 16:00:00 15.9 3 Oeste 8 Oeste 0 948.5 -0.9 33
2020-01-06 15:00:00 14.3 0 Calma 6 Norte 0 948.4 -2 39
2020-01-06 14:00:00 11.6 0 Calma 8 Este 0 948.8 -1.9 44
2020-01-06 13:00:00 8.6 3 Nordeste 6 Nordeste 0 949.4 -1.3 53
2020-01-06 12:00:00 6.4 2 Oeste 6 Noroeste 0 950.4 0 64
2020-01-06 11:00:00 2.9 0 Calma 6 Oeste 0 950.7 0.8 85
2020-01-06 10:00:00 -0.3 2 Oeste 5 Oeste 0 950.7 1.3 96